Time;durP1;ratioP1;P1;durP2;ratioP2;P2;SDS_P1;SDS_P2;PMS_P1;PMS_P2;Temp;Humidity;BMP_temperature;BMP_pressure;BME280_temperature;BME280_humidity;BME280_pressure;Samples;Min_cycle;Max_cycle;Signal;HPM_P1;HPM_P2
2022/12/27 00:00:44;;;;;;;1.90;1.60;;;;;;;;;;2076803;28;20061;-83
2022/12/27 00:02:03;;;;;;;1.35;1.25;;;;;;;;;;2076286;28;20041;-83
2022/12/27 00:03:22;;;;;;;5.18;1.45;;;;;;;;;;2075753;28;20116;-84
2022/12/27 00:04:41;;;;;;;3.80;1.30;;;;;;;;;;2077444;28;21328;-84
2022/12/27 00:06:04;;;;;;;1.40;1.30;;;;;;;;;;2076706;28;20033;-84
2022/12/27 00:07:23;;;;;;;2.10;1.23;;;;;;;;;;2076308;28;20021;-84
2022/12/27 00:08:43;;;;;;;2.67;1.35;;;;;;;;;;2077322;28;20025;-84
2022/12/27 00:10:02;;;;;;;1.25;1.15;;;;;;;;;;2077116;28;20033;-84
2022/12/27 00:11:23;;;;;;;1.30;1.20;;;;;;;;;;2076214;28;20030;-83
2022/12/27 00:12:42;;;;;;;1.40;1.30;;;;;;;;;;2080162;28;20037;-83
2022/12/27 00:14:02;;;;;;;1.55;1.40;;;;;;;;;;2079815;28;20042;-84
2022/12/27 00:15:21;;;;;;;3.25;1.58;;;;;;;;;;2077673;28;20030;-84
2022/12/27 00:16:40;;;;;;;2.50;1.38;;;;;;;;;;2084698;28;20021;-84
2022/12/27 00:17:59;;;;;;;1.40;1.30;;;;;;;;;;2079424;28;20026;-84
2022/12/27 00:19:18;;;;;;;1.60;1.50;;;;;;;;;;2077378;28;20029;-84
2022/12/27 00:20:37;;;;;;;1.45;1.35;;;;;;;;;;2076154;28;20033;-84
2022/12/27 00:21:56;;;;;;;2.55;1.30;;;;;;;;;;2077406;28;20096;-83
2022/12/27 00:23:15;;;;;;;1.33;1.23;;;;;;;;;;2078962;28;20025;-83
2022/12/27 00:24:34;;;;;;;1.70;1.60;;;;;;;;;;2080588;28;20025;-83
2022/12/27 00:26:00;;;;;;;2.55;1.60;;;;;;;;;;2078742;28;20041;-84
2022/12/27 00:27:19;;;;;;;1.42;1.30;;;;;;;;;;2077304;28;20021;-84
2022/12/27 00:28:38;;;;;;;1.30;1.20;;;;;;;;;;2075936;28;20390;-83
2022/12/27 00:29:57;;;;;;;1.50;1.40;;;;;;;;;;2077507;28;20460;-84
2022/12/27 00:31:16;;;;;;;1.60;1.42;;;;;;;;;;2077208;28;20037;-84
2022/12/27 00:32:35;;;;;;;1.63;1.52;;;;;;;;;;2076918;28;20097;-84
2022/12/27 00:33:55;;;;;;;1.60;1.50;;;;;;;;;;2076379;28;20042;-83
2022/12/27 00:35:14;;;;;;;2.40;1.90;;;;;;;;;;2078199;28;20029;-84
2022/12/27 00:36:33;;;;;;;1.75;1.65;;;;;;;;;;2079585;28;20021;-84
2022/12/27 00:37:52;;;;;;;3.40;1.40;;;;;;;;;;2079157;28;20995;-84
2022/12/27 00:39:11;;;;;;;1.50;1.40;;;;;;;;;;2079906;28;20128;-84
2022/12/27 00:40:32;;;;;;;1.77;1.67;;;;;;;;;;2078949;28;20034;-83
2022/12/27 00:41:51;;;;;;;1.75;1.65;;;;;;;;;;2079745;28;20501;-83
2022/12/27 00:43:10;;;;;;;1.95;1.60;;;;;;;;;;2078412;28;20021;-83
2022/12/27 00:44:30;;;;;;;1.85;1.33;;;;;;;;;;2076657;28;20033;-84
2022/12/27 00:45:49;;;;;;;2.33;1.50;;;;;;;;;;2077288;28;20025;-85
2022/12/27 00:47:08;;;;;;;1.83;1.48;;;;;;;;;;2080542;28;20034;-83
2022/12/27 00:48:27;;;;;;;1.48;1.33;;;;;;;;;;2078050;28;20030;-83
2022/12/27 00:49:46;;;;;;;1.60;1.50;;;;;;;;;;2075156;28;20116;-83
2022/12/27 00:51:07;;;;;;;1.60;1.50;;;;;;;;;;2077711;28;20037;-84
2022/12/27 00:52:26;;;;;;;3.85;1.70;;;;;;;;;;2085048;28;20041;-83
2022/12/27 00:53:45;;;;;;;1.55;1.45;;;;;;;;;;2082754;28;20030;-84
2022/12/27 00:55:05;;;;;;;1.60;1.50;;;;;;;;;;2080824;28;20083;-84
2022/12/27 00:56:25;;;;;;;1.80;1.63;;;;;;;;;;2080626;28;20030;-84
2022/12/27 00:57:44;;;;;;;1.77;1.67;;;;;;;;;;2079227;28;20070;-84
2022/12/27 00:59:04;;;;;;;1.65;1.55;;;;;;;;;;2079480;28;20507;-84
2022/12/27 01:00:23;;;;;;;1.70;1.60;;;;;;;;;;2076237;28;20029;-84
2022/12/27 01:01:42;;;;;;;1.70;1.60;;;;;;;;;;2080252;28;20033;-83
2022/12/27 01:03:01;;;;;;;1.77;1.67;;;;;;;;;;2078392;28;20026;-83
2022/12/27 01:04:20;;;;;;;2.00;1.90;;;;;;;;;;2079094;28;20034;-84
2022/12/27 01:05:39;;;;;;;1.92;1.80;;;;;;;;;;2076544;28;20026;-84
2022/12/27 01:06:58;;;;;;;2.78;1.70;;;;;;;;;;2075597;28;20033;-83
2022/12/27 01:08:17;;;;;;;2.25;2.05;;;;;;;;;;2078763;28;20052;-83
2022/12/27 01:09:36;;;;;;;1.80;1.70;;;;;;;;;;2079673;28;20159;-83
2022/12/27 01:10:55;;;;;;;2.15;1.98;;;;;;;;;;2080479;28;20026;-84
2022/12/27 01:12:14;;;;;;;1.90;1.80;;;;;;;;;;2080467;28;20022;-83
2022/12/27 01:13:33;;;;;;;1.77;1.67;;;;;;;;;;2074962;28;20108;-83
2022/12/27 01:14:52;;;;;;;2.25;2.05;;;;;;;;;;2077045;28;20049;-83
2022/12/27 01:16:13;;;;;;;2.30;2.10;;;;;;;;;;2084111;28;20041;-83
2022/12/27 01:17:32;;;;;;;2.08;1.88;;;;;;;;;;2088268;28;20025;-84
2022/12/27 01:18:51;;;;;;;2.03;1.77;;;;;;;;;;2079024;28;20025;-84
2022/12/27 01:20:11;;;;;;;1.95;1.85;;;;;;;;;;2075611;28;20033;-83
2022/12/27 01:21:29;;;;;;;1.80;1.70;;;;;;;;;;2076621;28;20061;-85
2022/12/27 01:22:48;;;;;;;1.90;1.80;;;;;;;;;;2076042;28;20029;-83
2022/12/27 01:24:07;;;;;;;2.03;1.65;;;;;;;;;;2078837;28;20506;-84
2022/12/27 01:25:26;;;;;;;1.70;1.60;;;;;;;;;;2079944;28;20120;-84
2022/12/27 01:26:45;;;;;;;1.92;1.75;;;;;;;;;;2080154;28;20030;-84
2022/12/27 01:28:05;;;;;;;2.33;2.13;;;;;;;;;;2077413;28;20025;-84
2022/12/27 01:29:24;;;;;;;2.80;1.98;;;;;;;;;;2076267;28;20030;-83
2022/12/27 01:30:43;;;;;;;1.80;1.70;;;;;;;;;;2079024;28;20029;-84
2022/12/27 01:32:02;;;;;;;1.92;1.83;;;;;;;;;;2075803;28;20058;-83
2022/12/27 01:33:21;;;;;;;1.83;1.73;;;;;;;;;;2076162;28;20449;-84
2022/12/27 01:34:40;;;;;;;2.00;1.90;;;;;;;;;;2084037;28;20510;-83
2022/12/27 01:36:09;;;;;;;4.45;2.08;;;;;;;;;;2079486;28;20136;-83
2022/12/27 01:37:28;;;;;;;2.42;2.13;;;;;;;;;;2077487;28;20033;-84
2022/12/27 01:38:47;;;;;;;2.05;1.85;;;;;;;;;;2075458;28;20037;-83
2022/12/27 01:40:07;;;;;;;1.80;1.70;;;;;;;;;;2077913;28;20037;-83
2022/12/27 01:43:09;;;;;;;2.75;2.55;;;;;;;;;;2081144;28;20030;-83
2022/12/27 01:44:37;;;;;;;1.90;1.80;;;;;;;;;;2088869;28;20029;-83
2022/12/27 01:45:57;;;;;;;3.45;2.00;;;;;;;;;;2081370;28;20021;-83
2022/12/27 01:47:16;;;;;;;1.80;1.70;;;;;;;;;;2078780;28;20029;-84
2022/12/27 01:48:35;;;;;;;2.25;2.13;;;;;;;;;;2077102;28;20395;-83
2022/12/27 01:50:06;;;;;;;2.10;1.90;;;;;;;;;;2077577;28;20033;-84
2022/12/27 01:51:25;;;;;;;3.15;1.90;;;;;;;;;;2079915;28;20550;-84
2022/12/27 01:52:44;;;;;;;2.28;2.08;;;;;;;;;;2078681;28;20037;-84
2022/12/27 01:54:03;;;;;;;2.10;2.00;;;;;;;;;;2077477;28;20029;-83
2022/12/27 01:55:29;;;;;;;1.85;1.75;;;;;;;;;;2081117;28;20034;-83
2022/12/27 01:56:48;;;;;;;2.03;1.85;;;;;;;;;;2081372;28;20022;-84
2022/12/27 01:58:16;;;;;;;2.08;1.98;;;;;;;;;;2076908;28;20029;-83
2022/12/27 01:59:35;;;;;;;1.90;1.80;;;;;;;;;;2079013;28;20030;-83
2022/12/27 02:00:55;;;;;;;2.33;2.08;;;;;;;;;;2078547;28;20030;-83
2022/12/27 02:02:14;;;;;;;2.22;2.03;;;;;;;;;;2076688;28;20041;-84
2022/12/27 02:03:34;;;;;;;1.90;1.80;;;;;;;;;;2076468;28;20034;-84
2022/12/27 02:04:53;;;;;;;2.83;2.63;;;;;;;;;;2086857;28;20029;-84
2022/12/27 02:06:13;;;;;;;2.10;1.90;;;;;;;;;;2079904;28;20050;-84
2022/12/27 02:07:52;;;;;;;2.80;2.60;;;;;;;;;;2082192;28;20021;-84
2022/12/27 02:09:20;;;;;;;2.42;2.22;;;;;;;;;;2080981;28;20510;-84
2022/12/27 02:10:40;;;;;;;2.60;2.30;;;;;;;;;;2081350;28;20029;-84
2022/12/27 02:12:00;;;;;;;2.70;2.50;;;;;;;;;;2079416;28;20486;-86
2022/12/27 02:13:20;;;;;;;2.17;1.98;;;;;;;;;;2080552;28;20029;-84
2022/12/27 02:14:40;;;;;;;2.85;2.15;;;;;;;;;;2079881;28;20033;-83
2022/12/27 02:16:00;;;;;;;2.08;1.88;;;;;;;;;;2080978;28;20025;-83
2022/12/27 02:17:23;;;;;;;2.08;1.90;;;;;;;;;;2081214;28;20042;-83
2022/12/27 02:18:42;;;;;;;1.80;1.70;;;;;;;;;;2079828;28;20093;-83
2022/12/27 02:20:07;;;;;;;1.60;1.50;;;;;;;;;;2077746;28;20445;-83
2022/12/27 02:21:54;;;;;;;1.42;1.33;;;;;;;;;;2076881;28;20030;-83
2022/12/27 02:25:10;;;;;;;1.38;1.27;;;;;;;;;;2080641;28;20045;-83
2022/12/27 02:26:32;;;;;;;3.00;1.35;;;;;;;;;;2081312;28;20042;-83
2022/12/27 02:28:00;;;;;;;1.17;1.08;;;;;;;;;;2084850;28;20052;-83
2022/12/27 02:29:37;;;;;;;0.90;0.90;;;;;;;;;;2082377;28;20073;-83
2022/12/27 02:31:01;;;;;;;1.02;0.90;;;;;;;;;;2080212;28;20052;-84
2022/12/27 02:32:24;;;;;;;1.33;0.90;;;;;;;;;;2086472;28;20409;-83
2022/12/27 02:33:46;;;;;;;0.70;0.70;;;;;;;;;;2080780;28;20033;-83
2022/12/27 02:35:05;;;;;;;0.63;0.63;;;;;;;;;;2076678;28;20029;-83
2022/12/27 02:36:26;;;;;;;0.70;0.70;;;;;;;;;;2081550;28;20057;-84
2022/12/27 02:37:47;;;;;;;1.60;0.68;;;;;;;;;;2079549;28;20065;-83
2022/12/27 02:39:08;;;;;;;0.55;0.55;;;;;;;;;;2081572;28;20025;-83
2022/12/27 02:53:04;;;;;;;0.30;0.30;;;;;;;;;;2079717;28;20029;-83
2022/12/27 02:54:41;;;;;;;0.45;0.45;;;;;;;;;;2080457;28;20108;-83
2022/12/27 02:57:56;;;;;;;0.40;0.30;;;;;;;;;;2080632;28;20030;-83
2022/12/27 02:59:34;;;;;;;0.30;0.30;;;;;;;;;;2081742;28;20041;-84
2022/12/27 03:04:46;;;;;;;0.30;0.30;;;;;;;;;;2081588;28;20483;-84
2022/12/27 03:07:51;;;;;;;1.27;0.40;;;;;;;;;;2079478;28;20892;-83
2022/12/27 03:16:09;;;;;;;0.20;0.15;;;;;;;;;;2080772;28;20045;-83
2022/12/27 03:17:33;;;;;;;1.10;0.35;;;;;;;;;;2080843;28;20033;-83
2022/12/27 03:18:59;;;;;;;0.50;0.40;;;;;;;;;;2086534;28;20498;-83
2022/12/27 03:25:29;;;;;;;0.25;0.20;;;;;;;;;;2080303;28;20029;-82
2022/12/27 03:26:49;;;;;;;0.93;0.30;;;;;;;;;;2079390;28;20022;-84
2022/12/27 03:33:26;;;;;;;2.05;0.30;;;;;;;;;;2079866;28;20478;-84
2022/12/27 03:34:54;;;;;;;4.22;0.95;;;;;;;;;;2079812;28;20030;-83
2022/12/27 03:38:03;;;;;;;1.83;0.30;;;;;;;;;;2081598;28;20069;-83
2022/12/27 03:39:29;;;;;;;0.73;0.20;;;;;;;;;;2079491;28;20430;-83
2022/12/27 03:44:24;;;;;;;1.30;0.20;;;;;;;;;;2080683;28;20033;-84
2022/12/27 03:47:27;;;;;;;0.63;0.43;;;;;;;;;;2080097;28;20061;-84
2022/12/27 03:48:49;;;;;;;0.40;0.30;;;;;;;;;;2079980;28;20058;-83
2022/12/27 03:50:12;;;;;;;1.92;0.60;;;;;;;;;;2080019;28;20037;-83
2022/12/27 03:51:33;;;;;;;1.38;0.40;;;;;;;;;;2077372;28;20504;-83
2022/12/27 03:52:57;;;;;;;1.83;0.43;;;;;;;;;;2077216;28;20014;-84
2022/12/27 03:54:25;;;;;;;1.67;0.40;;;;;;;;;;2087068;28;20033;-83
2022/12/27 03:55:43;;;;;;;2.90;0.93;;;;;;;;;;2089237;28;20025;-84
2022/12/27 03:57:08;;;;;;;2.75;0.50;;;;;;;;;;2080471;28;20042;-83
2022/12/27 03:58:26;;;;;;;0.75;0.28;;;;;;;;;;2078639;28;20507;-83
2022/12/27 03:59:45;;;;;;;2.72;0.50;;;;;;;;;;2077648;28;20030;-83
2022/12/27 04:01:04;;;;;;;0.90;0.22;;;;;;;;;;2077896;28;20063;-84
2022/12/27 04:02:24;;;;;;;2.67;0.50;;;;;;;;;;2080701;28;20045;-83
2022/12/27 04:03:43;;;;;;;2.13;0.40;;;;;;;;;;2078412;28;20041;-84
2022/12/27 04:05:02;;;;;;;5.45;0.65;;;;;;;;;;2077867;28;20029;-84
2022/12/27 04:06:21;;;;;;;2.10;0.43;;;;;;;;;;2077327;28;20034;-84
2022/12/27 04:35:24;;;;;;;3.22;0.73;;;;;;;;;;2080396;28;20033;-83
2022/12/27 04:36:43;;;;;;;7.13;1.42;;;;;;;;;;2080803;28;20033;-83
2022/12/27 04:38:02;;;;;;;1.50;1.00;;;;;;;;;;2081053;28;20409;-83
2022/12/27 04:39:21;;;;;;;2.75;0.75;;;;;;;;;;2081078;28;20030;-84
2022/12/27 04:55:36;;;;;;;3.83;1.13;;;;;;;;;;2080429;28;20037;-84
2022/12/27 04:56:55;;;;;;;5.78;1.02;;;;;;;;;;2079382;28;20033;-83
2022/12/27 04:58:14;;;;;;;8.40;0.80;;;;;;;;;;2080450;28;20045;-83
2022/12/27 05:02:48;;;;;;;6.57;1.10;;;;;;;;;;2079503;28;20046;-83
2022/12/27 05:04:08;;;;;;;6.47;1.00;;;;;;;;;;2078522;28;20029;-84
2022/12/27 05:05:27;;;;;;;7.30;1.15;;;;;;;;;;2080377;28;20025;-84
2022/12/27 05:06:46;;;;;;;4.60;0.70;;;;;;;;;;2085256;28;20021;-84
2022/12/27 05:14:37;;;;;;;7.00;1.13;;;;;;;;;;2080448;28;20034;-83
2022/12/27 05:15:55;;;;;;;7.20;1.58;;;;;;;;;;2082416;28;20029;-82
2022/12/27 05:17:14;;;;;;;9.57;1.80;;;;;;;;;;2078187;28;20132;-83
2022/12/27 05:18:34;;;;;;;10.95;1.05;;;;;;;;;;2083247;28;20049;-83
2022/12/27 05:19:53;;;;;;;11.45;1.40;;;;;;;;;;2082253;28;20503;-83
2022/12/27 05:21:12;;;;;;;9.18;1.27;;;;;;;;;;2079658;28;20038;-83
2022/12/27 05:25:47;;;;;;;7.75;1.10;;;;;;;;;;2082234;28;20013;-84
2022/12/27 05:27:05;;;;;;;6.53;1.23;;;;;;;;;;2081431;28;20064;-83
2022/12/27 05:28:24;;;;;;;10.65;1.40;;;;;;;;;;2086145;28;20025;-83
2022/12/27 05:29:43;;;;;;;6.80;1.60;;;;;;;;;;2082497;28;20030;-84
2022/12/27 05:31:02;;;;;;;9.60;1.10;;;;;;;;;;2077989;28;20030;-84
2022/12/27 05:32:21;;;;;;;8.05;1.67;;;;;;;;;;2085757;28;20045;-83
2022/12/27 05:33:40;;;;;;;8.10;1.10;;;;;;;;;;2081083;28;20030;-83
2022/12/27 05:34:59;;;;;;;9.95;1.50;;;;;;;;;;2078022;28;20444;-83
2022/12/27 05:36:18;;;;;;;11.48;1.13;;;;;;;;;;2078704;28;20037;-83
2022/12/27 05:37:37;;;;;;;10.40;2.17;;;;;;;;;;2085110;28;20454;-83
2022/12/27 05:38:56;;;;;;;10.15;1.98;;;;;;;;;;2084517;28;20398;-83
2022/12/27 05:40:15;;;;;;;5.55;1.23;;;;;;;;;;2080845;28;20025;-83
2022/12/27 05:41:34;;;;;;;7.15;1.02;;;;;;;;;;2078059;28;20037;-81
2022/12/27 05:42:53;;;;;;;8.45;1.17;;;;;;;;;;2080339;28;20672;-83
2022/12/27 05:44:12;;;;;;;13.23;1.75;;;;;;;;;;2078764;28;20029;-84
2022/12/27 05:45:32;;;;;;;10.63;1.17;;;;;;;;;;2080825;28;20030;-84
2022/12/27 05:46:52;;;;;;;8.88;1.38;;;;;;;;;;2081727;28;20108;-83
2022/12/27 05:48:12;;;;;;;8.50;1.20;;;;;;;;;;2081339;28;20116;-84
2022/12/27 05:49:31;;;;;;;6.70;1.10;;;;;;;;;;2077314;28;20025;-82
2022/12/27 05:50:50;;;;;;;9.88;1.27;;;;;;;;;;2081447;28;20037;-83
2022/12/27 05:52:09;;;;;;;5.30;1.45;;;;;;;;;;2082372;28;20029;-83
2022/12/27 05:53:28;;;;;;;10.73;1.23;;;;;;;;;;2085158;28;20041;-84
2022/12/27 05:54:47;;;;;;;7.82;1.42;;;;;;;;;;2081929;28;20022;-83
2022/12/27 05:56:06;;;;;;;12.88;1.27;;;;;;;;;;2077208;28;20120;-82
2022/12/27 05:57:25;;;;;;;7.57;1.10;;;;;;;;;;2078841;28;20025;-83
2022/12/27 05:58:43;;;;;;;7.60;1.85;;;;;;;;;;2077214;28;20057;-83
2022/12/27 06:00:03;;;;;;;6.15;1.20;;;;;;;;;;2079673;28;20478;-84
2022/12/27 06:01:22;;;;;;;9.55;1.23;;;;;;;;;;2079126;28;20089;-85
2022/12/27 06:02:42;;;;;;;6.47;1.00;;;;;;;;;;2079617;28;20030;-84
2022/12/27 06:04:01;;;;;;;11.10;1.58;;;;;;;;;;2081494;28;20025;-83
2022/12/27 06:05:20;;;;;;;8.45;1.48;;;;;;;;;;2081505;28;20025;-84
2022/12/27 06:06:39;;;;;;;10.43;1.67;;;;;;;;;;2078900;28;20037;-84
2022/12/27 06:07:57;;;;;;;8.60;1.20;;;;;;;;;;2078872;28;20021;-84
2022/12/27 06:09:16;;;;;;;7.95;1.48;;;;;;;;;;2080565;28;20030;-85
2022/12/27 06:10:36;;;;;;;8.45;1.30;;;;;;;;;;2078201;28;20108;-84
2022/12/27 06:11:55;;;;;;;6.00;1.00;;;;;;;;;;2078114;28;20605;-84
2022/12/27 06:13:13;;;;;;;5.88;1.02;;;;;;;;;;2077924;28;20452;-84
2022/12/27 06:14:32;;;;;;;7.35;1.15;;;;;;;;;;2085115;28;20041;-84
2022/12/27 06:15:51;;;;;;;6.53;1.23;;;;;;;;;;2090697;28;20923;-84
2022/12/27 06:17:10;;;;;;;5.82;1.08;;;;;;;;;;2081623;28;20613;-85
2022/12/27 06:18:29;;;;;;;8.45;1.02;;;;;;;;;;2077766;28;20021;-85
2022/12/27 06:19:48;;;;;;;8.07;1.20;;;;;;;;;;2080471;28;20112;-84
2022/12/27 06:21:12;;;;;;;9.63;2.38;;;;;;;;;;2082291;28;20038;-84
2022/12/27 06:22:31;;;;;;;7.32;1.02;;;;;;;;;;2078912;28;20029;-84
2022/12/27 06:23:50;;;;;;;5.38;1.23;;;;;;;;;;2077679;28;20026;-84
2022/12/27 06:25:09;;;;;;;10.77;1.65;;;;;;;;;;2082161;28;20021;-85
2022/12/27 06:26:28;;;;;;;8.00;1.17;;;;;;;;;;2080795;28;20467;-85
2022/12/27 06:27:47;;;;;;;4.75;0.88;;;;;;;;;;2080572;28;20029;-85
2022/12/27 06:29:06;;;;;;;7.18;1.25;;;;;;;;;;2080218;28;21060;-85
2022/12/27 06:30:26;;;;;;;7.50;1.40;;;;;;;;;;2080989;28;20053;-85
2022/12/27 06:31:44;;;;;;;9.23;2.20;;;;;;;;;;2078548;28;20049;-84
2022/12/27 06:33:05;;;;;;;10.98;1.60;;;;;;;;;;2079462;28;20143;-85
2022/12/27 06:34:24;;;;;;;4.90;1.23;;;;;;;;;;2081052;28;20108;-85
2022/12/27 06:35:42;;;;;;;4.75;0.63;;;;;;;;;;2079236;28;20030;-85
2022/12/27 06:37:02;;;;;;;6.85;1.52;;;;;;;;;;2078209;28;20021;-85
2022/12/27 06:38:21;;;;;;;9.15;1.08;;;;;;;;;;2078348;28;20013;-85
2022/12/27 06:39:41;;;;;;;6.10;1.02;;;;;;;;;;2086087;28;20025;-84
2022/12/27 06:41:00;;;;;;;7.40;1.30;;;;;;;;;;2081864;28;20060;-85
2022/12/27 06:42:19;;;;;;;7.18;1.13;;;;;;;;;;2087063;28;20057;-85
2022/12/27 06:43:39;;;;;;;8.90;1.20;;;;;;;;;;2079910;28;20044;-84
2022/12/27 06:44:57;;;;;;;7.28;1.80;;;;;;;;;;2078371;28;20652;-85
2022/12/27 06:46:17;;;;;;;6.40;1.33;;;;;;;;;;2080753;28;20029;-84
2022/12/27 06:47:36;;;;;;;7.68;1.05;;;;;;;;;;2081215;28;20029;-84
2022/12/27 06:48:55;;;;;;;5.70;0.77;;;;;;;;;;2077546;28;20121;-83
2022/12/27 06:50:15;;;;;;;8.32;1.80;;;;;;;;;;2078139;28;20021;-85
2022/12/27 06:51:33;;;;;;;4.65;1.05;;;;;;;;;;2078719;28;20033;-84
2022/12/27 06:52:52;;;;;;;10.70;1.77;;;;;;;;;;2082101;28;20041;-85
2022/12/27 06:54:11;;;;;;;9.63;1.63;;;;;;;;;;2080221;28;20034;-84
2022/12/27 06:55:29;;;;;;;6.15;1.35;;;;;;;;;;2078196;28;20022;-85
2022/12/27 06:56:48;;;;;;;7.95;1.08;;;;;;;;;;2078432;28;20053;-84
2022/12/27 06:58:07;;;;;;;5.18;1.10;;;;;;;;;;2078359;28;20030;-85
2022/12/27 06:59:26;;;;;;;5.93;1.40;;;;;;;;;;2077953;28;20033;-85
2022/12/27 07:00:45;;;;;;;7.88;1.20;;;;;;;;;;2080985;28;20056;-84
2022/12/27 07:02:04;;;;;;;13.02;1.17;;;;;;;;;;2078157;28;20021;-84
2022/12/27 07:03:24;;;;;;;7.03;1.08;;;;;;;;;;2077676;28;20025;-84
2022/12/27 07:04:43;;;;;;;5.78;1.58;;;;;;;;;;2078390;28;20026;-84
2022/12/27 07:06:02;;;;;;;3.17;0.85;;;;;;;;;;2077903;28;20029;-85
2022/12/27 07:07:21;;;;;;;10.35;1.20;;;;;;;;;;2077248;28;20029;-84
2022/12/27 07:08:40;;;;;;;8.15;1.27;;;;;;;;;;2078136;28;20029;-84
2022/12/27 07:09:59;;;;;;;5.60;0.93;;;;;;;;;;2085334;28;20438;-84
2022/12/27 07:11:19;;;;;;;6.13;1.30;;;;;;;;;;2081904;28;20474;-84
2022/12/27 07:12:38;;;;;;;7.15;1.20;;;;;;;;;;2078255;28;20022;-84
2022/12/27 07:13:57;;;;;;;4.20;1.15;;;;;;;;;;2078100;28;20033;-85
2022/12/27 07:15:16;;;;;;;7.93;1.10;;;;;;;;;;2078011;28;20434;-84
2022/12/27 07:16:34;;;;;;;7.60;1.60;;;;;;;;;;2081052;28;20029;-84
2022/12/27 07:17:53;;;;;;;7.82;1.50;;;;;;;;;;2078029;28;20025;-84
2022/12/27 07:19:12;;;;;;;3.92;0.90;;;;;;;;;;2079731;28;20030;-84
2022/12/27 07:20:31;;;;;;;9.77;1.38;;;;;;;;;;2080187;28;20034;-84
2022/12/27 07:21:50;;;;;;;6.43;1.35;;;;;;;;;;2080655;28;20033;-86
2022/12/27 07:23:09;;;;;;;8.73;1.40;;;;;;;;;;2077072;28;20029;-84
2022/12/27 07:24:31;;;;;;;4.13;1.13;;;;;;;;;;2076048;28;20041;-84
2022/12/27 07:25:50;;;;;;;6.30;1.92;;;;;;;;;;2077740;28;20025;-84
2022/12/27 07:27:09;;;;;;;5.95;0.93;;;;;;;;;;2077755;28;20025;-85
2022/12/27 07:28:28;;;;;;;9.23;1.15;;;;;;;;;;2081310;28;20057;-84
2022/12/27 07:29:47;;;;;;;6.05;1.25;;;;;;;;;;2079493;28;20033;-84
2022/12/27 07:31:07;;;;;;;15.93;2.30;;;;;;;;;;2077555;28;20038;-84
2022/12/27 07:32:26;;;;;;;6.78;1.40;;;;;;;;;;2080215;28;20049;-84
2022/12/27 07:33:45;;;;;;;4.90;0.85;;;;;;;;;;2076876;28;20037;-84
2022/12/27 07:35:04;;;;;;;9.93;1.40;;;;;;;;;;2077642;28;20025;-85
2022/12/27 07:36:24;;;;;;;6.05;1.30;;;;;;;;;;2081859;28;20041;-85
2022/12/27 07:37:43;;;;;;;8.35;1.00;;;;;;;;;;2081103;28;20033;-84
2022/12/27 07:39:03;;;;;;;8.90;1.85;;;;;;;;;;2077749;28;20514;-85
2022/12/27 07:40:22;;;;;;;5.10;1.10;;;;;;;;;;2083813;28;20037;-84
2022/12/27 07:41:41;;;;;;;4.45;1.20;;;;;;;;;;2079636;28;20518;-85
2022/12/27 07:43:01;;;;;;;7.30;1.30;;;;;;;;;;2077297;28;20038;-84
2022/12/27 07:44:20;;;;;;;8.90;1.52;;;;;;;;;;2085599;28;20060;-84
2022/12/27 07:45:39;;;;;;;8.85;1.30;;;;;;;;;;2081174;28;20049;-84
2022/12/27 07:46:58;;;;;;;5.18;0.80;;;;;;;;;;2077733;28;20022;-84
2022/12/27 07:48:17;;;;;;;8.93;1.17;;;;;;;;;;2077366;28;20022;-84
2022/12/27 07:49:35;;;;;;;8.35;2.00;;;;;;;;;;2080568;28;20030;-84
2022/12/27 07:50:54;;;;;;;9.23;1.13;;;;;;;;;;2077593;28;20041;-84
2022/12/27 07:52:13;;;;;;;9.63;1.10;;;;;;;;;;2077351;28;20033;-85
2022/12/27 07:53:32;;;;;;;7.78;1.38;;;;;;;;;;2080157;28;20026;-84
2022/12/27 07:54:51;;;;;;;7.85;1.60;;;;;;;;;;2085005;28;20036;-85
2022/12/27 07:56:11;;;;;;;4.47;0.93;;;;;;;;;;2081583;28;20033;-85
2022/12/27 07:57:30;;;;;;;10.23;1.30;;;;;;;;;;2080380;28;20124;-84
2022/12/27 07:58:49;;;;;;;7.90;1.80;;;;;;;;;;2080712;28;20034;-84
2022/12/27 08:00:09;;;;;;;2.63;1.92;;;;;;;;;;2076815;28;20375;-84
2022/12/27 08:02:02;;;;;;;9.20;1.20;;;;;;;;;;2085885;28;20052;-84
2022/12/27 08:03:12;;;;;;;9.60;1.10;;;;;;;;;;2080061;28;20038;-85
2022/12/27 08:04:32;;;;;;;6.57;1.08;;;;;;;;;;2080742;28;20120;-84
2022/12/27 08:05:51;;;;;;;4.63;1.20;;;;;;;;;;2076853;28;20033;-85
2022/12/27 08:07:12;;;;;;;4.53;1.33;;;;;;;;;;2077480;28;20072;-85
2022/12/27 08:08:37;;;;;;;8.23;1.10;;;;;;;;;;2086085;28;20025;-84
2022/12/27 08:09:56;;;;;;;10.02;1.38;;;;;;;;;;2080910;28;20037;-84
2022/12/27 08:11:15;;;;;;;10.00;1.48;;;;;;;;;;2082338;28;20033;-85
2022/12/27 08:12:35;;;;;;;8.65;0.85;;;;;;;;;;2089572;28;20529;-84
2022/12/27 08:13:54;;;;;;;4.55;0.98;;;;;;;;;;2080202;28;20491;-84
2022/12/27 08:15:13;;;;;;;7.80;1.33;;;;;;;;;;2079856;28;20037;-85
2022/12/27 08:16:32;;;;;;;10.07;1.30;;;;;;;;;;2080030;28;20029;-84
2022/12/27 08:17:50;;;;;;;7.53;0.80;;;;;;;;;;2077312;28;20034;-84
2022/12/27 08:19:10;;;;;;;10.68;1.50;;;;;;;;;;2077825;28;20029;-84
2022/12/27 08:20:29;;;;;;;7.63;1.40;;;;;;;;;;2075990;28;20018;-84
2022/12/27 08:21:48;;;;;;;7.65;1.33;;;;;;;;;;2077849;28;20033;-83
2022/12/27 08:23:07;;;;;;;8.02;1.02;;;;;;;;;;2076993;28;20033;-85
2022/12/27 08:24:26;;;;;;;9.50;1.15;;;;;;;;;;2077501;28;20029;-84
2022/12/27 08:25:45;;;;;;;5.70;1.08;;;;;;;;;;2075508;28;20423;-85
2022/12/27 08:27:04;;;;;;;9.25;1.67;;;;;;;;;;2077743;28;20177;-85
2022/12/27 08:28:23;;;;;;;9.38;1.10;;;;;;;;;;2085123;28;20033;-84
2022/12/27 08:29:43;;;;;;;12.70;1.38;;;;;;;;;;2081723;28;20033;-84
2022/12/27 08:31:04;;;;;;;11.48;1.70;;;;;;;;;;2076867;28;20446;-85
2022/12/27 08:32:23;;;;;;;4.80;1.33;;;;;;;;;;2077545;28;20053;-84
2022/12/27 08:33:43;;;;;;;7.07;1.40;;;;;;;;;;2079015;28;20029;-84
2022/12/27 08:35:01;;;;;;;5.18;0.98;;;;;;;;;;2077316;28;20033;-85
2022/12/27 08:36:20;;;;;;;8.88;0.80;;;;;;;;;;2077385;28;20064;-85
2022/12/27 08:37:40;;;;;;;9.80;1.55;;;;;;;;;;2081641;28;20120;-85
2022/12/27 08:38:59;;;;;;;8.75;2.17;;;;;;;;;;2080507;28;20033;-84
2022/12/27 08:40:18;;;;;;;4.13;1.05;;;;;;;;;;2080735;28;20033;-85
2022/12/27 08:41:38;;;;;;;4.43;1.48;;;;;;;;;;2076831;28;20033;-84
2022/12/27 08:42:58;;;;;;;8.57;1.35;;;;;;;;;;2075916;28;20089;-84
2022/12/27 08:44:16;;;;;;;9.57;2.15;;;;;;;;;;2077529;28;20049;-84
2022/12/27 08:45:36;;;;;;;13.57;2.00;;;;;;;;;;2077343;28;20033;-84
2022/12/27 08:46:55;;;;;;;10.48;1.08;;;;;;;;;;2079872;28;20084;-84
2022/12/27 08:48:14;;;;;;;6.32;1.20;;;;;;;;;;2085582;28;20541;-83
2022/12/27 08:49:32;;;;;;;7.90;1.20;;;;;;;;;;2079306;28;20025;-84
2022/12/27 08:50:51;;;;;;;7.10;1.10;;;;;;;;;;2078245;28;20030;-84
2022/12/27 08:52:10;;;;;;;14.75;2.47;;;;;;;;;;2078504;28;20037;-84
2022/12/27 08:53:30;;;;;;;13.52;1.90;;;;;;;;;;2086666;28;20088;-84
2022/12/27 08:54:48;;;;;;;3.90;1.40;;;;;;;;;;2082011;28;20029;-84
2022/12/27 08:56:08;;;;;;;6.05;1.38;;;;;;;;;;2080786;28;20029;-84
2022/12/27 08:57:27;;;;;;;8.55;1.55;;;;;;;;;;2081444;28;20053;-84
2022/12/27 08:58:49;;;;;;;7.18;1.50;;;;;;;;;;2079088;28;20125;-85
2022/12/27 09:00:08;;;;;;;5.37;2.13;;;;;;;;;;2078388;28;20033;-84
2022/12/27 09:01:27;;;;;;;8.55;1.67;;;;;;;;;;2079030;28;20267;-83
2022/12/27 09:02:46;;;;;;;4.32;1.13;;;;;;;;;;2081721;28;20037;-84
2022/12/27 09:04:05;;;;;;;7.43;1.17;;;;;;;;;;2079390;28;20491;-85
2022/12/27 09:05:25;;;;;;;6.65;1.08;;;;;;;;;;2078582;28;20496;-84
2022/12/27 09:06:44;;;;;;;7.60;1.45;;;;;;;;;;2077830;28;20067;-86
2022/12/27 09:08:03;;;;;;;13.90;1.65;;;;;;;;;;2078193;28;20021;-85
2022/12/27 09:09:22;;;;;;;9.13;2.00;;;;;;;;;;2077453;28;20033;-85
2022/12/27 09:10:41;;;;;;;16.67;2.15;;;;;;;;;;2078598;28;20029;-84
2022/12/27 09:11:59;;;;;;;16.33;1.52;;;;;;;;;;2077442;28;20034;-84
2022/12/27 09:13:18;;;;;;;5.45;1.48;;;;;;;;;;2080515;28;20037;-85
2022/12/27 09:14:37;;;;;;;17.63;2.00;;;;;;;;;;2080852;28;20026;-84
2022/12/27 09:15:56;;;;;;;10.55;1.45;;;;;;;;;;2087344;28;20025;-85
2022/12/27 09:17:15;;;;;;;11.77;2.05;;;;;;;;;;2082237;28;20033;-85
2022/12/27 09:18:34;;;;;;;11.90;1.90;;;;;;;;;;2081916;28;20025;-85
2022/12/27 09:19:53;;;;;;;5.78;1.45;;;;;;;;;;2081955;28;20036;-85
2022/12/27 09:21:13;;;;;;;13.00;3.00;;;;;;;;;;2081327;28;20029;-84
2022/12/27 09:22:32;;;;;;;7.65;1.67;;;;;;;;;;2082218;28;20030;-84
2022/12/27 09:23:51;;;;;;;13.85;2.40;;;;;;;;;;2081301;28;20030;-85
2022/12/27 09:25:10;;;;;;;8.70;1.83;;;;;;;;;;2078826;28;20037;-84
2022/12/27 09:26:29;;;;;;;10.77;1.92;;;;;;;;;;2077488;28;20037;-85
2022/12/27 09:27:48;;;;;;;14.73;1.80;;;;;;;;;;2082192;28;20029;-83
2022/12/27 09:29:07;;;;;;;13.38;2.30;;;;;;;;;;2081699;28;20033;-84
2022/12/27 09:30:28;;;;;;;14.18;2.45;;;;;;;;;;2078795;28;20097;-85
2022/12/27 09:31:47;;;;;;;11.43;1.35;;;;;;;;;;2081646;28;20061;-84
2022/12/27 09:33:06;;;;;;;13.48;1.45;;;;;;;;;;2079287;28;20029;-85
2022/12/27 09:34:25;;;;;;;13.40;2.33;;;;;;;;;;2087259;28;20017;-85
2022/12/27 09:35:44;;;;;;;8.20;1.50;;;;;;;;;;2081655;28;20037;-85
2022/12/27 09:37:03;;;;;;;7.65;1.52;;;;;;;;;;2078094;28;20041;-85
2022/12/27 09:38:22;;;;;;;4.93;1.27;;;;;;;;;;2078771;28;20033;-85
2022/12/27 09:39:41;;;;;;;10.70;1.77;;;;;;;;;;2078802;28;20025;-85
2022/12/27 09:41:01;;;;;;;12.10;2.28;;;;;;;;;;2081759;28;20026;-85
2022/12/27 09:42:26;;;;;;;15.70;2.60;;;;;;;;;;2086324;28;20029;-84